Time;durP1;ratioP1;P1;durP2;ratioP2;P2;SDS_P1;SDS_P2;PMS_P1;PMS_P2;Temp;Humidity;BMP_temperature;BMP_pressure;BME280_temperature;BME280_humidity;BME280_pressure;Samples;Min_cycle;Max_cycle;Signal;HPM_P1;HPM_P2
2022/08/16 00:00:19;;;;;;;16.73;12.27;;;;;;;21.65;62.88;94821.78;6135183;23;20010;-85
2022/08/16 00:02:45;;;;;;;18.98;12.55;;;;;;;20.95;63.15;94721.91;6137072;23;20350;-85
2022/08/16 00:05:12;;;;;;;19.33;13.13;;;;;;;21.15;62.63;94743.19;6134602;23;20005;-86
2022/08/16 00:07:39;;;;;;;20.20;12.70;;;;;;;21.35;62.27;94748.69;6137157;23;20445;-85
2022/08/16 00:10:08;;;;;;;17.00;12.73;;;;;;;20.92;62.56;94691.03;6137523;23;20005;-86
2022/08/16 00:12:34;;;;;;;20.52;12.65;;;;;;;21.87;62.16;94824.59;6140182;23;20452;-86
2022/08/16 00:15:05;;;;;;;23.13;12.57;;;;;;;21.90;62.06;94823.09;6137905;23;20013;-85
2022/08/16 00:17:31;;;;;;;22.13;12.32;;;;;;;21.18;61.90;94710.16;6137859;23;20009;-85
2022/08/16 00:19:56;;;;;;;24.30;12.60;;;;;;;21.47;62.12;94746.63;6139963;23;20464;-86
2022/08/16 00:22:23;;;;;;;23.08;13.07;;;;;;;21.01;62.05;94680.06;6138111;23;20010;-85
2022/08/16 00:24:48;;;;;;;22.25;12.85;;;;;;;21.47;62.63;94784.41;6137219;23;20045;-85
2022/08/16 00:27:14;;;;;;;20.05;12.52;;;;;;;21.22;62.67;94744.50;6140298;23;20036;-85
2022/08/16 00:29:40;;;;;;;24.83;12.38;;;;;;;21.06;63.38;94753.38;6137619;23;20601;-85
2022/08/16 00:32:07;;;;;;;19.70;13.02;;;;;;;20.72;63.07;94684.81;6138357;23;20425;-85
2022/08/16 00:34:34;;;;;;;19.77;13.55;;;;;;;21.64;63.28;94818.31;6137260;23;20013;-85
2022/08/16 00:37:00;;;;;;;15.38;12.38;;;;;;;20.97;63.12;94727.75;6136950;23;20013;-85
2022/08/16 00:39:25;;;;;;;19.35;13.30;;;;;;;21.27;63.15;94776.63;6137347;23;20013;-85
2022/08/16 00:41:51;;;;;;;19.70;13.07;;;;;;;21.49;63.43;94819.91;6137097;23;20013;-85
2022/08/16 00:44:19;;;;;;;18.80;13.05;;;;;;;21.37;64.14;94819.22;6137811;23;20098;-85
2022/08/16 00:47:07;;;;;;;24.95;14.20;;;;;;;21.39;64.16;94822.34;6138192;23;20009;-85
2022/08/16 00:49:34;;;;;;;16.40;12.55;;;;;;;21.45;63.93;94827.13;6133261;23;20470;-85
2022/08/16 00:52:00;;;;;;;16.75;12.80;;;;;;;21.49;63.81;94829.91;6139674;23;20397;-85
2022/08/16 00:54:28;;;;;;;21.42;13.65;;;;;;;20.66;63.65;94720.47;6139601;23;20075;-85
2022/08/16 00:56:56;;;;;;;18.25;13.45;;;;;;;21.40;63.67;94840.88;6140118;23;20013;-86
2022/08/16 00:59:24;;;;;;;22.08;13.45;;;;;;;20.43;64.33;94722.97;6113409;23;20017;-85
2022/08/16 01:01:51;;;;;;;20.58;13.32;;;;;;;21.22;64.22;94842.38;6137820;23;20281;-85
2022/08/16 01:04:20;;;;;;;21.63;12.68;;;;;;;20.46;64.00;94741.13;6139562;23;20009;-85
2022/08/16 01:06:47;;;;;;;15.80;12.32;;;;;;;20.72;64.43;94816.06;6137226;23;20071;-86
2022/08/16 01:09:13;;;;;;;17.65;12.15;;;;;;;21.03;64.09;94829.56;6137423;23;20021;-85
2022/08/16 01:11:39;;;;;;;17.60;13.10;;;;;;;20.88;63.66;94808.78;6138761;23;20017;-85
2022/08/16 01:14:14;;;;;;;16.83;12.35;;;;;;;21.22;63.59;94857.75;6136667;23;20356;-85
2022/08/16 01:16:41;;;;;;;14.13;11.75;;;;;;;20.89;63.59;94788.00;6138239;23;20013;-86
2022/08/16 01:19:30;;;;;;;15.80;12.32;;;;;;;21.24;62.55;94829.31;6136513;23;20096;-85
2022/08/16 01:22:00;;;;;;;15.52;12.48;;;;;;;20.79;62.03;94752.34;6138857;23;20481;-85
2022/08/16 01:24:31;;;;;;;19.45;12.77;;;;;;;21.23;62.23;94814.28;6136582;23;20396;-85
2022/08/16 01:27:00;;;;;;;;;;;;;;;21.37;62.88;94859.66;6138452;23;20013;-86
2022/08/16 01:29:44;;;;;;;15.55;12.88;;;;;;;21.23;62.75;94837.75;6136899;23;20379;-85
2022/08/16 01:32:10;;;;;;;18.50;13.23;;;;;;;20.88;62.42;94765.66;6139880;23;20021;-86
2022/08/16 01:34:35;;;;;;;18.92;13.05;;;;;;;21.64;62.39;94869.59;6137296;23;20013;-85
2022/08/16 01:37:08;;;;;;;18.58;12.68;;;;;;;21.39;62.71;94841.22;6136075;23;20326;-86
2022/08/16 01:39:34;;;;;;;19.10;13.00;;;;;;;20.70;63.00;94740.97;6136437;23;20502;-86
2022/08/16 01:42:00;;;;;;;17.55;12.25;;;;;;;20.93;62.62;94781.56;6139819;23;20048;-85
2022/08/16 01:44:27;;;;;;;21.70;12.73;;;;;;;20.47;64.17;94761.53;6137420;23;20024;-85
2022/08/16 01:46:55;;;;;;;17.60;12.93;;;;;;;20.96;63.70;94815.91;6137968;23;20040;-85
2022/08/16 01:49:41;;;;;;;23.00;13.07;;;;;;;21.31;63.66;94869.16;6139204;23;20023;-85
2022/08/16 01:52:10;;;;;;;16.80;13.23;;;;;;;21.00;63.79;94821.38;6137140;23;20010;-85
2022/08/16 01:54:37;;;;;;;16.48;12.30;;;;;;;21.53;63.23;94879.34;6137475;23;20024;-85
2022/08/16 01:57:03;;;;;;;17.05;12.07;;;;;;;21.14;63.10;94813.63;6139334;23;20010;-85
2022/08/16 01:59:33;;;;;;;19.48;12.82;;;;;;;21.27;63.57;94852.13;6137761;23;20016;-85
2022/08/16 02:01:59;;;;;;;20.30;12.82;;;;;;;21.40;63.77;94864.38;6139085;23;20024;-85
2022/08/16 02:04:25;;;;;;;18.23;12.60;;;;;;;20.74;63.74;94763.41;6137519;23;20092;-84
2022/08/16 02:06:51;;;;;;;16.95;13.25;;;;;;;21.13;64.02;94866.03;6138514;23;20763;-84
2022/08/16 02:09:19;;;;;;;16.80;13.05;;;;;;;21.10;64.77;94890.97;6139262;23;20010;-85
2022/08/16 02:11:49;;;;;;;18.80;13.45;;;;;;;21.12;64.57;94891.41;6135939;23;20025;-85
2022/08/16 02:14:15;;;;;;;18.17;13.30;;;;;;;20.91;64.54;94850.41;6137047;23;20194;-84
2022/08/16 02:16:43;;;;;;;20.95;13.63;;;;;;;20.88;63.95;94841.13;6136679;23;20100;-85
2022/08/16 02:19:10;;;;;;;23.65;14.65;;;;;;;20.83;64.46;94859.47;6138213;23;20432;-84
2022/08/16 02:21:36;;;;;;;21.50;14.15;;;;;;;20.16;65.32;94815.28;6138007;23;20009;-85
2022/08/16 02:24:03;;;;;;;18.52;12.63;;;;;;;20.72;65.77;94937.31;6136627;23;20017;-85
2022/08/16 02:26:28;;;;;;;17.73;13.48;;;;;;;20.56;65.54;94901.47;6135596;23;20017;-85
2022/08/16 02:28:55;;;;;;;20.92;14.55;;;;;;;19.99;66.16;94843.25;6136027;23;20405;-85
2022/08/16 02:31:21;;;;;;;20.15;14.43;;;;;;;19.80;66.69;94865.41;6135820;23;20417;-85
2022/08/16 02:33:46;;;;;;;19.75;14.43;;;;;;;20.12;66.76;94938.25;6136684;23;20016;-84
2022/08/16 02:36:14;;;;;;;19.55;13.55;;;;;;;19.57;66.51;94845.47;6136327;23;20020;-85
2022/08/16 02:38:40;;;;;;;18.65;14.18;;;;;;;20.19;67.03;94941.16;6137086;23;20045;-84
2022/08/16 02:41:07;;;;;;;18.77;14.15;;;;;;;19.00;67.90;94787.22;6136076;23;20029;-84
2022/08/16 02:43:34;;;;;;;20.67;15.05;;;;;;;19.74;68.56;94877.53;6139816;23;20013;-84
2022/08/16 02:46:01;;;;;;;39.20;18.77;;;;;;;19.96;72.56;94940.84;6139279;23;20422;-85
2022/08/16 02:48:27;;;;;;;30.73;16.15;;;;;;;19.63;72.86;94933.69;6138294;23;20044;-86
2022/08/16 02:50:53;;;;;;;39.55;19.05;;;;;;;19.19;76.26;94916.47;6139327;23;20368;-85
2022/08/16 02:53:19;;;;;;;32.95;17.77;;;;;;;18.96;77.93;94893.81;6138989;23;20020;-85
2022/08/16 02:55:45;;;;;;;25.35;17.85;;;;;;;18.92;77.67;94903.63;6139729;23;20041;-85
2022/08/16 02:58:10;;;;;;;25.60;17.98;;;;;;;18.58;79.29;94910.16;6139310;23;20016;-85
2022/08/16 03:00:37;;;;;;;31.30;18.85;;;;;;;18.79;80.19;94920.84;6138750;23;20209;-85
2022/08/16 03:03:03;;;;;;;27.15;18.77;;;;;;;18.89;80.82;94923.91;6138539;23;20005;-85
2022/08/16 03:05:29;;;;;;;28.50;18.15;;;;;;;18.98;79.87;94928.41;6140354;23;20450;-85
2022/08/16 03:07:56;;;;;;;28.35;19.65;;;;;;;19.11;81.67;94930.78;6139905;23;20778;-85
2022/08/16 03:10:21;;;;;;;34.67;20.00;;;;;;;18.92;80.47;94876.78;6139661;23;20010;-84
2022/08/16 03:12:49;;;;;;;28.02;19.17;;;;;;;18.44;79.41;94794.97;6140351;23;20382;-85
2022/08/16 03:15:15;;;;;;;32.55;20.15;;;;;;;18.66;80.21;94807.22;6138233;23;20337;-85
2022/08/16 03:17:41;;;;;;;26.30;18.45;;;;;;;19.47;79.73;94910.47;6141075;23;20346;-84
2022/08/16 03:20:10;;;;;;;25.17;19.25;;;;;;;18.91;81.24;94809.94;6140273;23;20009;-84
2022/08/16 03:22:35;;;;;;;28.17;19.73;;;;;;;19.67;80.57;94892.66;6137510;23;20515;-85
2022/08/16 03:25:04;;;;;;;26.50;18.25;;;;;;;19.33;79.34;94854.31;6137710;23;20018;-85
2022/08/16 03:27:32;;;;;;;32.58;20.05;;;;;;;19.64;79.26;94878.75;6139125;23;20032;-85
2022/08/16 03:30:21;;;;;;;22.70;18.40;;;;;;;19.77;78.79;94892.97;6138454;23;20032;-85
2022/08/16 03:32:48;;;;;;;26.45;19.10;;;;;;;19.22;78.72;94800.19;6137470;23;20024;-85
2022/08/16 03:35:16;;;;;;;34.78;18.42;;;;;;;19.21;79.22;94781.75;6140039;23;20016;-85
2022/08/16 03:37:43;;;;;;;29.13;18.00;;;;;;;19.47;78.57;94835.97;6140550;23;20415;-85
2022/08/16 03:40:09;;;;;;;28.30;19.38;;;;;;;19.51;78.56;94842.25;6139277;23;20535;-85
2022/08/16 03:42:35;;;;;;;26.30;18.73;;;;;;;19.30;79.35;94828.09;6138085;23;20009;-85
2022/08/16 03:45:01;;;;;;;29.85;19.08;;;;;;;19.48;79.05;94844.81;6138745;23;20021;-85
2022/08/16 03:47:28;;;;;;;28.63;17.27;;;;;;;20.07;77.76;94908.84;6137427;23;20148;-85
2022/08/16 03:49:55;;;;;;;25.05;18.33;;;;;;;20.12;77.38;94914.81;6138906;23;20456;-84
2022/08/16 03:52:21;;;;;;;23.75;17.27;;;;;;;19.90;77.99;94880.31;6139109;23;20208;-86
2022/08/16 03:54:47;;;;;;;23.25;18.42;;;;;;;20.09;78.08;94896.63;6140859;23;20017;-84
2022/08/16 03:57:13;;;;;;;24.02;18.75;;;;;;;19.63;78.55;94852.19;6138099;23;20013;-84
2022/08/16 03:59:39;;;;;;;22.48;16.40;;;;;;;19.35;77.29;94810.97;6139879;23;20072;-84
2022/08/16 04:02:05;;;;;;;23.67;17.63;;;;;;;19.58;79.18;94817.47;6138565;23;20009;-85
2022/08/16 04:04:31;;;;;;;28.35;18.10;;;;;;;20.28;79.06;94904.91;6135366;23;20016;-85
2022/08/16 04:06:56;;;;;;;25.17;17.95;;;;;;;20.26;78.30;94882.13;6137238;23;20053;-85
2022/08/16 04:09:22;;;;;;;25.92;18.33;;;;;;;20.41;78.64;94909.16;6136943;23;20021;-85
2022/08/16 04:11:47;;;;;;;23.98;19.00;;;;;;;19.92;79.57;94841.16;6137072;23;20009;-84
2022/08/16 04:14:13;;;;;;;27.88;20.23;;;;;;;19.74;79.53;94809.47;6137127;23;20305;-85
2022/08/16 04:16:39;;;;;;;28.60;19.52;;;;;;;20.29;79.67;94859.91;6137751;23;20024;-84
2022/08/16 04:19:04;;;;;;;25.88;19.13;;;;;;;20.61;78.27;94906.59;6136806;23;20008;-85
2022/08/16 04:21:32;;;;;;;27.30;19.10;;;;;;;20.69;78.05;94911.06;6136965;23;20021;-84
2022/08/16 04:23:58;;;;;;;25.92;20.13;;;;;;;20.18;78.56;94842.66;6137047;23;20014;-85
2022/08/16 04:26:24;;;;;;;29.48;20.23;;;;;;;20.25;77.09;94865.19;6136771;23;20057;-85
2022/08/16 04:28:49;;;;;;;30.63;20.23;;;;;;;20.25;78.15;94846.34;6137453;23;20021;-86
2022/08/16 04:31:15;;;;;;;29.27;20.55;;;;;;;20.03;78.73;94818.03;6137774;23;20041;-84
2022/08/16 04:33:40;;;;;;;27.80;20.30;;;;;;;20.69;78.71;94908.34;6138785;23;20465;-84
2022/08/16 04:36:06;;;;;;;30.35;20.10;;;;;;;20.70;78.40;94921.50;6136991;23;20436;-84
2022/08/16 04:38:33;;;;;;;24.30;19.90;;;;;;;20.68;77.79;94931.81;6137204;23;20015;-84
2022/08/16 04:40:58;;;;;;;26.90;19.90;;;;;;;18.83;77.53;94648.53;6136979;23;20026;-85
2022/08/16 04:43:24;;;;;;;29.75;21.05;;;;;;;19.98;76.32;94802.13;6136938;23;20019;-85
2022/08/16 04:45:49;;;;;;;29.48;21.85;;;;;;;20.28;76.88;94844.88;6137273;23;20085;-84
2022/08/16 04:48:15;;;;;;;31.45;20.38;;;;;;;20.69;76.26;94905.66;6136551;23;20020;-84
2022/08/16 04:50:41;;;;;;;28.17;20.65;;;;;;;20.24;76.17;94842.06;6137777;23;20021;-85
2022/08/16 04:53:06;;;;;;;24.55;19.27;;;;;;;20.15;75.72;94825.28;6136236;23;20013;-84
2022/08/16 04:55:32;;;;;;;33.05;21.10;;;;;;;19.87;74.33;94784.88;6139470;23;20063;-86
2022/08/16 04:57:58;;;;;;;30.83;19.80;;;;;;;20.67;74.85;94913.34;6139670;23;20021;-85
2022/08/16 05:00:32;;;;;;;27.25;20.05;;;;;;;19.92;75.11;94800.78;6137558;23;20016;-84
2022/08/16 05:03:09;;;;;;;27.65;20.80;;;;;;;20.52;75.22;94895.97;6139414;23;20009;-84
2022/08/16 05:05:37;;;;;;;29.05;20.13;;;;;;;20.60;74.48;94921.19;6137509;23;20021;-84
2022/08/16 05:08:04;;;;;;;28.50;20.45;;;;;;;19.85;75.41;94816.72;6137764;23;20527;-84
2022/08/16 05:10:30;;;;;;;24.02;19.38;;;;;;;20.63;75.13;94915.13;6139626;23;20356;-84
2022/08/16 05:12:57;;;;;;;26.60;20.35;;;;;;;20.02;74.03;94847.97;6139228;23;20087;-84
2022/08/16 05:15:22;;;;;;;33.10;21.15;;;;;;;19.98;75.33;94855.19;6145084;23;20014;-85
2022/08/16 05:17:48;;;;;;;28.63;20.15;;;;;;;19.80;75.76;94825.03;6142705;23;20015;-84
2022/08/16 05:20:14;;;;;;;31.23;20.70;;;;;;;20.45;74.66;94924.59;6138459;23;20100;-85
2022/08/16 05:22:41;;;;;;;29.25;20.02;;;;;;;20.32;74.86;94911.16;6138908;23;20041;-85
2022/08/16 05:25:08;;;;;;;32.78;21.83;;;;;;;20.53;74.84;94927.16;6140133;23;20017;-85
2022/08/16 05:27:33;;;;;;;31.65;21.45;;;;;;;20.37;75.74;94892.09;6138427;23;20420;-85
2022/08/16 05:29:59;;;;;;;28.73;21.88;;;;;;;19.32;76.49;94739.03;6137065;23;20301;-85
2022/08/16 05:32:24;;;;;;;29.65;20.02;;;;;;;20.41;74.96;94917.22;6137992;23;20115;-85
2022/08/16 05:34:50;;;;;;;34.45;22.35;;;;;;;19.47;75.21;94760.66;6139558;23;20117;-85
2022/08/16 05:37:15;;;;;;;31.27;21.20;;;;;;;18.39;74.78;94598.38;6138392;23;20520;-84
2022/08/16 05:39:41;;;;;;;30.55;20.73;;;;;;;20.00;75.64;94821.41;6140195;23;20777;-84
2022/08/16 05:42:06;;;;;;;31.30;21.65;;;;;;;20.52;75.20;94895.22;6138416;23;20060;-85
2022/08/16 05:44:32;;;;;;;33.20;20.98;;;;;;;20.58;75.82;94902.69;6139428;23;20013;-84
2022/08/16 05:46:59;;;;;;;31.88;20.88;;;;;;;20.75;75.01;94923.19;6138464;23;20307;-84
2022/08/16 05:49:28;;;;;;;34.45;22.40;;;;;;;20.20;74.88;94835.03;6138001;23;20149;-84
2022/08/16 05:51:54;;;;;;;28.10;21.67;;;;;;;20.48;74.87;94862.78;6138676;23;20009;-84
2022/08/16 05:54:21;;;;;;;33.92;21.95;;;;;;;20.88;75.42;94926.59;6138383;23;20017;-85
2022/08/16 05:56:46;;;;;;;33.58;23.27;;;;;;;20.47;75.95;94860.41;6138906;23;20498;-84
2022/08/16 05:59:14;;;;;;;34.75;22.98;;;;;;;20.99;76.19;94922.25;6137025;23;20065;-84
2022/08/16 06:01:43;;;;;;;34.20;22.80;;;;;;;21.06;75.86;94917.81;6136650;23;20017;-84
2022/08/16 06:04:10;;;;;;;34.08;23.05;;;;;;;20.87;76.16;94889.97;6138093;23;20024;-85
2022/08/16 06:06:35;;;;;;;33.20;21.88;;;;;;;20.62;75.80;94867.75;6136052;23;20009;-85
2022/08/16 06:09:02;;;;;;;29.67;21.83;;;;;;;20.99;75.90;94925.72;6136068;23;20027;-85
2022/08/16 06:11:27;;;;;;;33.28;22.52;;;;;;;20.70;75.79;94875.69;6138850;23;20021;-85
2022/08/16 06:13:53;;;;;;;30.25;20.77;;;;;;;20.78;74.71;94909.78;6140059;23;20475;-85
2022/08/16 06:16:18;;;;;;;31.20;21.38;;;;;;;20.80;74.90;94888.66;6139084;23;20028;-85
2022/08/16 06:18:44;;;;;;;39.72;23.17;;;;;;;20.62;74.86;94857.75;6139098;23;20009;-85
2022/08/16 06:21:10;;;;;;;34.53;23.60;;;;;;;20.66;75.07;94860.56;6137936;23;20022;-85
2022/08/16 06:23:36;;;;;;;35.13;22.10;;;;;;;21.15;74.99;94926.53;6137424;23;20013;-85
2022/08/16 06:26:03;;;;;;;33.90;23.90;;;;;;;20.51;74.45;94813.59;6137525;23;20067;-85
2022/08/16 06:28:28;;;;;;;33.08;22.05;;;;;;;20.58;74.95;94813.78;6137037;23;20090;-85
2022/08/16 06:30:54;;;;;;;33.60;22.25;;;;;;;21.34;74.02;94923.22;6136392;23;20443;-85
2022/08/16 06:33:20;;;;;;;33.13;22.05;;;;;;;21.26;74.24;94893.72;6139280;23;20010;-86
2022/08/16 06:35:46;;;;;;;31.55;23.13;;;;;;;21.13;74.18;94866.78;6136998;23;20453;-85
2022/08/16 06:38:12;;;;;;;35.13;21.55;;;;;;;21.26;71.54;94870.22;6135921;23;20016;-85
2022/08/16 06:40:37;;;;;;;32.65;23.02;;;;;;;19.64;72.47;94615.16;6136032;23;20053;-85
2022/08/16 06:43:03;;;;;;;31.70;22.98;;;;;;;19.28;73.06;94558.81;6138039;23;20449;-85
2022/08/16 06:45:29;;;;;;;32.13;20.45;;;;;;;21.55;71.31;94920.25;6137436;23;20018;-85
2022/08/16 06:47:55;;;;;;;27.35;21.73;;;;;;;19.51;71.35;94634.38;6137513;23;20017;-85
2022/08/16 06:50:21;;;;;;;35.03;21.40;;;;;;;21.25;70.25;94878.66;6136747;23;20024;-85
2022/08/16 06:52:46;;;;;;;31.13;20.58;;;;;;;21.52;69.73;94915.53;6136462;23;20480;-85
2022/08/16 06:55:14;;;;;;;30.08;22.90;;;;;;;21.65;69.66;94910.84;6135769;23;20017;-85
2022/08/16 06:57:40;;;;;;;32.65;20.75;;;;;;;21.74;69.44;94916.84;6136857;23;20024;-85
2022/08/16 07:00:13;;;;;;;33.22;22.85;;;;;;;21.08;70.07;94802.34;6136795;23;20013;-85
2022/08/16 07:02:43;;;;;;;35.67;22.27;;;;;;;21.42;70.77;94846.72;6137200;23;20473;-85
2022/08/16 07:05:10;;;;;;;34.53;23.15;;;;;;;21.50;72.44;94843.06;6135429;23;20295;-85
2022/08/16 07:07:36;;;;;;;31.17;20.88;;;;;;;21.43;70.43;94815.13;6136627;23;20793;-85
2022/08/16 07:10:04;;;;;;;34.75;21.40;;;;;;;21.83;70.14;94876.94;6136976;23;20052;-85
2022/08/16 07:12:30;;;;;;;28.95;21.40;;;;;;;21.43;69.16;94848.28;6137804;23;20013;-85
2022/08/16 07:14:56;;;;;;;34.13;20.85;;;;;;;21.47;69.72;94859.94;6136118;23;20018;-85
2022/08/16 07:17:22;;;;;;;33.53;20.83;;;;;;;21.81;69.13;94877.31;6135995;23;20016;-85
2022/08/16 07:19:48;;;;;;;26.95;20.33;;;;;;;21.61;69.74;94845.19;6138279;23;20067;-85
2022/08/16 07:22:16;;;;;;;28.30;21.00;;;;;;;21.26;70.67;94793.94;6136446;23;20013;-85
2022/08/16 07:24:43;;;;;;;28.00;19.88;;;;;;;21.90;70.37;94883.28;6136459;23;20009;-86
2022/08/16 07:27:09;;;;;;;28.92;20.02;;;;;;;21.59;69.69;94825.91;6136557;23;20043;-85
2022/08/16 07:29:35;;;;;;;27.17;19.42;;;;;;;21.99;69.41;94869.63;6138822;23;20745;-85
2022/08/16 07:32:01;;;;;;;32.83;20.45;;;;;;;21.95;68.92;94857.94;6136117;23;20080;-85
2022/08/16 07:34:27;;;;;;;30.98;20.25;;;;;;;21.54;69.53;94794.56;6136391;23;20362;-85
2022/08/16 07:36:53;;;;;;;32.10;19.40;;;;;;;21.75;68.50;94818.53;6135373;23;20378;-86
2022/08/16 07:39:18;;;;;;;33.42;21.50;;;;;;;20.81;67.87;94684.63;6138573;23;20009;-85
2022/08/16 07:41:44;;;;;;;30.00;19.77;;;;;;;22.27;67.55;94853.25;6135412;23;20045;-85
2022/08/16 07:44:10;;;;;;;26.65;19.58;;;;;;;22.07;67.40;94814.63;6136465;23;20444;-86
2022/08/16 07:46:35;;;;;;;35.30;19.90;;;;;;;22.15;68.19;94813.63;6138177;23;20028;-85
2022/08/16 07:49:01;;;;;;;37.60;21.90;;;;;;;22.18;68.58;94847.25;6136199;23;20017;-85
2022/08/16 07:51:30;;;;;;;32.55;20.05;;;;;;;22.16;67.52;94798.22;6136971;23;20111;-85
2022/08/16 07:53:56;;;;;;;27.42;19.45;;;;;;;22.77;67.37;94886.66;6136081;23;20025;-85
2022/08/16 07:56:21;;;;;;;28.50;18.92;;;;;;;22.28;65.82;94808.84;6136461;23;20467;-85
2022/08/16 07:58:47;;;;;;;31.20;20.08;;;;;;;22.52;66.77;94840.19;6135416;23;20009;-85
2022/08/16 08:01:13;;;;;;;31.13;18.80;;;;;;;21.27;66.23;94639.84;6134746;23;20092;-85
2022/08/16 08:03:41;;;;;;;28.75;18.27;;;;;;;22.29;65.53;94786.13;6138944;23;20081;-85
2022/08/16 08:06:06;;;;;;;26.77;18.52;;;;;;;22.88;65.14;94860.63;6135557;23;20013;-85
2022/08/16 08:08:32;;;;;;;29.60;17.73;;;;;;;23.20;65.77;94880.09;6136512;23;20017;-85
2022/08/16 08:10:58;;;;;;;28.83;17.10;;;;;;;22.95;64.26;94848.00;6137971;23;20077;-85
2022/08/16 08:13:23;;;;;;;31.80;16.95;;;;;;;22.92;64.69;94832.50;6136946;23;20037;-85
2022/08/16 08:15:49;;;;;;;26.10;16.13;;;;;;;22.91;63.91;94820.09;6138668;23;20416;-85
2022/08/16 08:18:14;;;;;;;23.98;15.48;;;;;;;23.34;63.81;94869.53;6136538;23;20533;-85
2022/08/16 08:20:44;;;;;;;18.67;12.07;;;;;;;23.40;59.50;94892.44;6137256;23;20013;-85
2022/08/16 08:23:12;;;;;;;15.13;11.25;;;;;;;23.50;60.44;94870.19;6138365;23;20040;-85
2022/08/16 08:25:39;;;;;;;20.30;12.23;;;;;;;23.15;60.11;94824.38;6136479;23;20163;-85
2022/08/16 08:28:05;;;;;;;27.48;12.82;;;;;;;23.57;60.32;94873.03;6135714;23;20115;-85
2022/08/16 08:30:31;;;;;;;15.98;11.23;;;;;;;23.67;58.38;94869.69;6137825;23;20088;-85
2022/08/16 08:32:57;;;;;;;18.42;12.35;;;;;;;23.46;59.56;94817.91;6140692;23;20049;-85
2022/08/16 08:35:23;;;;;;;25.25;11.70;;;;;;;23.56;59.24;94838.19;6137932;23;20029;-85
2022/08/16 08:37:48;;;;;;;16.23;11.73;;;;;;;23.57;59.00;94842.47;6137985;23;20049;-85
2022/08/16 08:40:14;;;;;;;14.70;9.52;;;;;;;23.22;56.72;94767.69;6136958;23;20524;-85
2022/08/16 08:42:42;;;;;;;11.10;6.68;;;;;;;23.10;52.62;94754.38;6137425;23;20021;-85
2022/08/16 08:45:10;;;;;;;14.75;7.88;;;;;;;23.40;54.33;94786.91;6136153;23;20477;-86
2022/08/16 08:47:36;;;;;;;14.25;8.40;;;;;;;24.20;51.67;94884.03;6138205;23;20040;-85
2022/08/16 08:50:04;;;;;;;9.85;7.95;;;;;;;23.90;51.80;94830.94;6138530;23;20507;-85
2022/08/16 08:52:29;;;;;;;10.82;6.82;;;;;;;24.16;50.93;94855.31;6147586;23;20020;-85
2022/08/16 08:54:55;;;;;;;10.25;7.25;;;;;;;24.08;51.55;94823.84;6141121;23;20005;-85
2022/08/16 08:57:21;;;;;;;11.15;7.65;;;;;;;24.32;50.57;94836.19;6139161;23;20009;-84
2022/08/16 08:59:47;;;;;;;10.07;7.47;;;;;;;24.60;50.29;94874.44;6139396;23;20008;-85
2022/08/16 09:02:15;;;;;;;11.45;6.95;;;;;;;24.21;48.53;94798.88;6142548;23;20372;-85
2022/08/16 09:04:42;;;;;;;11.13;7.60;;;;;;;24.80;49.36;94861.50;6148216;23;20010;-85
2022/08/16 09:07:08;;;;;;;8.27;7.25;;;;;;;24.44;48.98;94804.19;6144394;23;20017;-85
2022/08/16 09:09:34;;;;;;;12.82;8.20;;;;;;;24.84;51.10;94846.84;6138097;23;20021;-85
2022/08/16 09:12:01;;;;;;;9.90;6.70;;;;;;;24.83;47.89;94836.34;6141202;23;20368;-85
2022/08/16 09:14:28;;;;;;;9.55;6.85;;;;;;;24.32;48.31;94752.94;6137250;23;20021;-84
2022/08/16 09:16:54;;;;;;;11.23;7.35;;;;;;;25.06;47.33;94864.13;6139485;23;20083;-85
2022/08/16 09:19:21;;;;;;;8.93;7.70;;;;;;;25.05;48.75;94859.84;6138524;23;20001;-85
2022/08/16 09:21:48;;;;;;;9.32;7.18;;;;;;;24.75;48.57;94823.88;6139276;23;20024;-85
2022/08/16 09:24:14;;;;;;;14.27;7.00;;;;;;;24.61;47.50;94765.66;6139126;23;20055;-85
2022/08/16 09:26:40;;;;;;;8.75;6.40;;;;;;;24.72;46.70;94770.41;6137035;23;20024;-85
2022/08/16 09:29:06;;;;;;;9.88;7.10;;;;;;;24.96;46.87;94802.41;6138777;23;20014;-85
2022/08/16 09:31:32;;;;;;;13.88;7.72;;;;;;;25.59;46.62;94871.97;6142925;23;20101;-85
2022/08/16 09:33:57;;;;;;;13.75;6.40;;;;;;;25.62;45.63;94861.16;6137058;23;20122;-85
2022/08/16 09:36:23;;;;;;;9.65;6.60;;;;;;;25.62;45.06;94844.09;6137727;23;20039;-84
2022/08/16 09:38:49;;;;;;;9.48;7.32;;;;;;;25.93;44.93;94873.41;6137849;23;20020;-85
2022/08/16 09:41:15;;;;;;;11.63;6.60;;;;;;;24.78;45.53;94695.69;6135621;23;20025;-84
2022/08/16 09:43:41;;;;;;;10.88;6.63;;;;;;;25.94;45.99;94866.78;6134754;23;20372;-85
2022/08/16 09:46:08;;;;;;;7.60;6.72;;;;;;;25.96;45.73;94847.41;6137336;23;20088;-83
2022/08/16 09:48:36;;;;;;;8.73;6.43;;;;;;;25.48;44.54;94786.94;6135864;23;20014;-84
2022/08/16 09:51:02;;;;;;;9.75;7.57;;;;;;;25.69;44.58;94816.97;6136553;23;20016;-83
2022/08/16 09:53:29;;;;;;;10.27;6.78;;;;;;;26.06;44.28;94842.03;6139206;23;20017;-84
2022/08/16 09:55:55;;;;;;;14.90;6.90;;;;;;;26.50;44.32;94860.13;6135420;23;20014;-84
2022/08/16 09:58:24;;;;;;;11.82;6.50;;;;;;;26.92;42.91;94866.91;6134888;23;20025;-84
2022/08/16 10:00:50;;;;;;;12.27;6.90;;;;;;;27.24;42.05;94856.84;6135460;23;20025;-84
2022/08/16 10:03:17;;;;;;;8.85;6.70;;;;;;;27.75;40.96;94858.47;6139191;23;20013;-84
2022/08/16 10:05:43;;;;;;;12.02;6.88;;;;;;;28.31;40.62;94860.31;6136745;23;20020;-84
2022/08/16 10:08:09;;;;;;;9.52;6.40;;;;;;;28.18;37.76;94824.53;6139013;23;20009;-85
2022/08/16 10:10:35;;;;;;;11.90;6.18;;;;;;;28.86;37.06;94835.16;6139077;23;20037;-85
2022/08/16 10:13:14;;;;;;;10.48;6.20;;;;;;;29.43;37.00;94865.66;6136784;23;20017;-85
2022/08/16 10:15:42;;;;;;;8.50;6.20;;;;;;;29.96;36.04;94853.53;6137174;23;20088;-84
2022/08/16 10:18:11;;;;;;;7.97;5.75;;;;;;;30.11;34.74;94781.88;6136345;23;20542;-85
2022/08/16 10:20:40;;;;;;;8.68;5.50;;;;;;;30.74;34.06;94860.91;6136427;23;20432;-84
2022/08/16 10:23:11;;;;;;;10.10;5.93;;;;;;;30.38;34.36;94860.50;6137312;23;20509;-85
2022/08/16 10:25:40;;;;;;;8.50;5.68;;;;;;;30.18;35.20;94822.81;6136863;23;20017;-85
2022/08/16 10:28:06;;;;;;;11.13;5.70;;;;;;;30.43;33.96;94854.59;6138074;23;20547;-85
2022/08/16 10:30:32;;;;;;;11.10;5.28;;;;;;;30.03;33.49;94785.88;6140188;23;20009;-84
2022/08/16 10:32:58;;;;;;;8.40;5.72;;;;;;;30.53;32.66;94777.88;6137633;23;20009;-85
2022/08/16 10:35:24;;;;;;;8.75;5.80;;;;;;;31.51;32.67;94847.31;6137614;23;20017;-85
2022/08/16 10:37:50;;;;;;;14.63;6.40;;;;;;;31.40;32.49;94796.19;6136130;23;20014;-85
2022/08/16 10:40:17;;;;;;;10.25;6.03;;;;;;;31.88;31.37;94838.09;6135380;23;20028;-85
2022/08/16 10:42:42;;;;;;;10.68;5.97;;;;;;;31.35;32.08;94793.94;6138053;23;20107;-85
2022/08/16 10:45:08;;;;;;;9.23;5.65;;;;;;;30.96;31.91;94722.53;6138979;23;20041;-85
2022/08/16 10:47:34;;;;;;;8.45;5.65;;;;;;;30.66;33.49;94798.03;6135802;23;20017;-85
2022/08/16 10:50:00;;;;;;;7.43;5.30;;;;;;;30.67;34.51;94862.50;6137125;23;20460;-85
2022/08/16 10:52:26;;;;;;;7.18;6.15;;;;;;;29.87;35.99;94830.13;6138379;23;20108;-85
2022/08/16 10:54:51;;;;;;;9.02;5.85;;;;;;;29.18;35.04;94822.09;6138546;23;20033;-85
2022/08/16 10:57:17;;;;;;;9.38;6.30;;;;;;;28.28;37.04;94754.78;6138681;23;20014;-83
2022/08/16 10:59:42;;;;;;;7.85;5.18;;;;;;;28.02;36.17;94767.69;6136892;23;20763;-84
2022/08/16 11:02:09;;;;;;;10.48;6.35;;;;;;;28.96;35.25;94837.84;6134905;23;20203;-84
2022/08/16 11:04:35;;;;;;;8.63;5.43;;;;;;;28.81;33.39;94745.53;6135872;23;20453;-84
2022/08/16 11:07:00;;;;;;;7.07;5.43;;;;;;;29.20;31.80;94729.63;6136522;23;20495;-85
2022/08/16 11:09:26;;;;;;;10.25;5.25;;;;;;;30.01;31.66;94785.50;6138916;23;20038;-84
2022/08/16 11:11:52;;;;;;;6.85;5.47;;;;;;;30.88;31.46;94855.25;6136730;23;20492;-84
2022/08/16 11:14:18;;;;;;;10.65;6.18;;;;;;;30.36;32.09;94732.34;6136526;23;20566;-84
2022/08/16 11:16:44;;;;;;;6.18;5.45;;;;;;;31.24;30.91;94809.75;6136487;23;20484;-84